.
WxDataArchive / Data Records for 2013-02-14
2013-02-13 February 2013 2013-02-15

Data Records for Thursday, 14 February 2013

Time	Temp	Chill	HIndex	Humid	Dewpt	 Wind 	HiWind	WindDir	Rain 	Barom 
-----	----	-----	------	-----	-----	------	------	-------	-----	----- 
00:00	34.0	34.0	34.0	79	28.2	0	2	248	0.00	29.805 
00:05	34.0	34.0	34.0	79	28.2	0	3	248	0.00	29.805 
00:10	34.0	34.0	34.0	79	28.2	0	3	248	0.00	29.805 
00:15	34.0	34.0	34.0	79	28.2	0	2	248	0.00	29.807 
00:20	34.0	34.0	34.0	79	28.2	0	3	248	0.00	29.807 
00:25	33.8	33.8	33.8	78	27.7	0	1	248	0.00	29.807 
00:30	33.7	33.7	33.7	79	27.9	0	1	248	0.00	29.805 
00:35	33.5	33.5	33.5	79	27.7	0	3	248	0.00	29.805 
00:40	33.4	33.4	33.4	79	27.6	0	2	248	0.00	29.805 
00:45	33.4	33.4	33.4	79	27.6	0	1	248	0.00	29.807 
00:50	33.2	33.2	33.2	79	27.4	0	1	248	0.00	29.807 
00:55	33.1	33.1	33.1	79	27.3	0	2	248	0.00	29.807 
01:00	33.1	33.1	33.1	80	27.6	0	1	248	0.00	29.806 
01:05	33.1	33.1	33.1	80	27.6	0	2	248	0.00	29.806 
01:10	33.1	33.1	33.1	80	27.6	0	2	248	0.00	29.806 
01:15	33.1	33.1	33.1	79	27.3	0	1	248	0.00	29.804 
01:20	32.9	32.9	32.9	80	27.4	0	1	248	0.00	29.804 
01:25	32.9	32.9	32.9	80	27.4	0	2	248	0.00	29.804 
01:30	32.9	32.9	32.9	80	27.4	0	3	248	0.00	29.803 
01:35	32.9	32.9	32.9	79	27.1	0	2	248	0.00	29.803 
01:40	32.9	32.9	32.9	79	27.1	0	2	248	0.00	29.803 
01:45	32.9	32.9	32.9	79	27.1	0	3	248	0.00	29.800 
01:50	32.9	32.9	32.9	79	27.1	0	2	248	0.00	29.800 
01:55	33.1	33.1	33.1	79	27.3	1	4	248	0.00	29.800 
02:00	33.1	33.1	33.1	79	27.3	0	2	248	0.00	29.798 
02:05	33.1	33.1	33.1	78	27.0	1	2	248	0.00	29.798 
02:10	33.1	33.1	33.1	79	27.3	1	3	248	0.00	29.798 
02:15	33.1	33.1	33.1	78	27.0	1	4	248	0.00	29.794 
02:20	33.1	33.1	33.1	78	27.0	0	3	248	0.00	29.794 
02:25	33.1	33.1	33.1	78	27.0	1	3	248	0.00	29.794 
02:30	33.1	33.1	33.1	79	27.3	0	2	248	0.00	29.795 
02:35	32.9	32.9	32.9	79	27.1	0	2	248	0.00	29.795 
02:40	32.9	32.9	32.9	79	27.1	0	3	225	0.00	29.795 
02:45	32.9	32.9	32.9	79	27.1	0	2	225	0.00	29.795 
02:50	32.8	32.8	32.8	80	27.3	0	1	225	0.00	29.795 
02:55	32.8	32.8	32.8	80	27.3	0	3	225	0.00	29.795 
03:00	32.8	32.8	32.8	80	27.3	0	2	225	0.00	29.793 
03:05	32.9	32.9	32.9	80	27.4	0	2	225	0.00	29.793 
03:10	32.9	32.9	32.9	81	27.7	0	2	225	0.00	29.793 
03:15	32.9	32.9	32.9	81	27.7	1	3	225	0.00	29.793 
03:20	33.1	33.1	33.1	81	27.9	1	5	225	0.00	29.793 
03:25	33.1	33.1	33.1	81	27.9	0	2	248	0.00	29.793 
03:30	33.2	33.2	33.2	81	28.0	1	4	248	0.00	29.793 
03:35	33.2	33.2	33.2	82	28.3	0	3	248	0.00	29.793 
03:40	33.4	33.4	33.4	82	28.5	1	3	248	0.00	29.793 
03:45	33.4	33.4	33.4	82	28.5	1	2	248	0.00	29.794 
03:50	33.4	33.4	33.4	82	28.5	0	1	248	0.00	29.794 
03:55	33.4	33.4	33.4	82	28.5	0	2	248	0.00	29.794 
04:00	33.4	33.4	33.4	82	28.5	0	3	248	0.00	29.793 
04:05	33.5	33.5	33.5	83	28.9	1	3	248	0.00	29.793 
04:10	33.5	33.5	33.5	83	28.9	0	3	248	0.00	29.793 
04:15	33.5	33.5	33.5	83	28.9	1	3	248	0.00	29.792 
04:20	33.7	33.7	33.7	83	29.1	0	2	248	0.00	29.792 
04:25	33.7	33.7	33.7	83	29.1	0	3	248	0.00	29.792 
04:30	33.7	33.7	33.7	83	29.1	1	3	248	0.00	29.791 
04:35	33.7	33.7	33.7	83	29.1	1	3	248	0.00	29.791 
04:40	33.8	33.8	33.8	83	29.2	1	4	248	0.00	29.791 
04:45	33.7	33.7	33.7	83	29.1	0	3	248	0.00	29.790 
04:50	33.7	33.7	33.7	83	29.1	0	3	248	0.00	29.790 
04:55	33.7	33.7	33.7	83	29.1	0	2	248	0.00	29.790 
05:00	33.5	33.5	33.5	83	28.9	0	2	248	0.00	29.791 
05:05	33.5	33.5	33.5	83	28.9	0	3	248	0.00	29.791 
05:10	33.4	33.4	33.4	84	29.1	0	1	248	0.00	29.791 
05:15	33.4	33.4	33.4	84	29.1	0	2	248	0.00	29.794 
05:20	33.4	33.4	33.4	84	29.1	1	4	248	0.00	29.794 
05:25	33.4	33.4	33.4	84	29.1	1	3	248	0.00	29.794 
05:30	33.4	33.4	33.4	84	29.1	0	2	248	0.00	29.794 
05:35	33.4	33.4	33.4	85	29.4	0	3	248	0.00	29.794 
05:40	33.4	33.4	33.4	85	29.4	0	1	248	0.00	29.794 
05:45	33.4	33.4	33.4	85	29.4	1	3	248	0.00	29.792 
05:50	33.4	33.4	33.4	85	29.4	1	4	248	0.00	29.792 
05:55	33.5	33.5	33.5	86	29.8	1	5	248	0.00	29.792 
06:00	33.5	33.5	33.5	86	29.8	1	4	248	0.00	29.789 
06:05	33.5	33.5	33.5	86	29.8	1	3	248	0.00	29.789 
06:10	33.5	33.5	33.5	86	29.8	0	3	248	0.00	29.789 
06:15	33.5	33.5	33.5	86	29.8	1	6	248	0.00	29.791 
06:20	33.5	33.5	33.5	86	29.8	1	5	248	0.00	29.791 
06:25	33.7	33.7	33.7	87	30.3	2	6	248	0.00	29.791 
06:30	33.7	33.7	33.7	87	30.3	1	4	248	0.00	29.788 
06:35	33.7	33.7	33.7	87	30.3	1	4	225	0.00	29.788 
06:40	33.8	33.8	33.8	87	30.3	1	7	225	0.00	29.788 
06:45	33.8	33.8	33.8	87	30.3	1	3	248	0.00	29.785 
06:50	33.7	33.7	33.7	87	30.3	1	4	248	0.00	29.785 
06:55	33.7	33.7	33.7	87	30.3	1	6	248	0.00	29.785 
07:00	33.8	33.8	33.8	88	30.6	1	4	248	0.00	29.789 
07:05	33.8	33.8	33.8	88	30.6	1	3	248	0.00	29.789 
07:10	33.8	33.8	33.8	88	30.6	1	5	248	0.00	29.789 
07:15	33.8	33.8	33.8	88	30.6	1	5	248	0.00	29.798 
07:20	33.8	33.8	33.8	88	30.6	1	3	225	0.00	29.798 
07:25	34.0	34.0	34.0	88	30.8	1	3	225	0.00	29.798 
07:30	34.1	34.1	34.1	88	30.9	0	2	225	0.00	29.799 
07:35	34.1	34.1	34.1	88	30.9	1	3	225	0.00	29.799 
07:40	34.1	34.1	34.1	88	30.9	1	4	248	0.00	29.799 
07:45	34.3	34.3	34.3	88	31.1	1	5	248	0.00	29.801 
07:50	34.3	34.3	34.3	88	31.1	1	4	248	0.00	29.801 
07:55	34.4	34.4	34.4	88	31.2	1	5	248	0.00	29.801 
08:00	34.4	34.4	34.4	88	31.2	1	4	248	0.00	29.800 
08:05	34.4	34.4	34.4	88	31.2	0	2	248	0.00	29.800 
08:10	34.6	34.6	34.6	88	31.4	1	3	248	0.00	29.800 
08:15	34.6	34.6	34.6	88	31.4	0	3	248	0.00	29.797 
08:20	34.6	34.6	34.6	88	31.4	1	3	248	0.00	29.797 
08:25	34.7	34.7	34.7	88	31.5	1	3	270	0.00	29.797 
08:30	34.7	34.7	34.7	88	31.5	0	2	248	0.00	29.796 
08:35	34.9	34.9	34.9	88	31.7	1	4	90	0.00	29.796 
08:40	34.9	34.9	34.9	88	31.7	1	4	225	0.00	29.796 
08:45	34.9	34.9	34.9	88	31.7	1	4	90	0.00	29.785 
08:50	35.0	35.0	35.0	88	31.8	1	4	90	0.00	29.785 
08:55	35.3	35.3	35.3	88	32.1	1	4	158	0.00	29.785 
09:00	35.5	35.5	35.5	88	32.3	1	3	45	0.00	29.783 
09:05	35.5	35.5	35.5	88	32.3	1	5	135	0.00	29.783 
09:10	35.6	35.6	35.6	88	32.4	1	5	22	0.00	29.783 
09:15	35.6	35.6	35.6	88	32.4	1	6	0	0.00	29.782 
09:20	35.8	35.8	35.8	88	32.6	2	6	90	0.00	29.782 
09:25	35.8	35.8	35.8	87	32.3	1	3	158	0.00	29.782 
09:30	35.9	35.9	35.9	87	32.4	2	4	68	0.00	29.778 
09:35	36.0	36.0	36.0	87	32.5	1	5	45	0.00	29.778 
09:40	36.2	36.2	36.2	87	32.7	1	4	68	0.00	29.778 
09:45	36.0	36.0	36.0	86	32.2	0	3	68	0.00	29.776 
09:50	36.0	36.0	36.0	86	32.2	1	4	292	0.00	29.776 
09:55	36.5	36.5	36.5	87	33.0	1	4	90	0.00	29.776 
10:00	36.9	36.9	36.9	86	33.1	1	5	90	0.00	29.768 
10:05	37.0	37.0	37.0	85	32.9	2	5	68	0.00	29.768 
10:10	37.2	37.2	37.2	85	33.1	2	9	45	0.00	29.768 
10:15	37.6	37.6	37.6	85	33.5	2	5	45	0.00	29.764 
10:20	37.8	37.8	37.8	83	33.1	2	7	68	0.00	29.764 
10:25	37.9	37.9	37.9	84	33.5	1	4	0	0.00	29.764 
10:30	38.3	38.3	38.3	83	33.6	1	3	270	0.00	29.765 
10:35	38.6	38.6	38.6	82	33.6	1	4	270	0.00	29.765 
10:40	38.6	38.6	38.6	81	33.3	2	9	248	0.00	29.765 
10:45	38.9	38.9	38.9	81	33.6	1	4	248	0.00	29.763 
10:50	39.1	39.1	39.1	80	33.5	3	10	248	0.00	29.763 
10:55	39.5	39.5	39.5	81	34.2	2	4	315	0.00	29.763 
11:00	39.8	39.8	39.8	79	33.8	3	9	248	0.00	29.762 
11:05	39.8	39.8	39.8	78	33.5	3	7	248	0.00	29.762 
11:10	39.8	39.8	39.8	78	33.5	3	9	248	0.00	29.762 
11:15	39.6	39.6	39.6	78	33.3	2	6	248	0.00	29.762 
11:20	39.5	39.5	39.5	78	33.2	3	10	248	0.00	29.762 
11:25	39.5	39.5	39.5	78	33.2	1	5	248	0.00	29.762 
11:30	39.6	39.6	39.6	78	33.3	3	5	248	0.00	29.762 
11:35	39.9	39.9	39.9	79	33.9	3	10	248	0.00	29.762 
11:40	40.2	40.2	40.2	78	33.9	2	9	248	0.00	29.762 
11:45	40.5	40.5	40.5	77	33.9	2	7	248	0.00	29.762 
11:50	40.3	40.3	40.3	77	33.7	3	10	248	0.00	29.762 
11:55	40.3	40.3	40.3	77	33.7	2	9	248	0.00	29.762 
12:00	40.3	40.3	40.3	77	33.7	2	7	248	0.00	29.762 
12:05	40.3	40.3	40.3	77	33.7	2	7	248	0.00	29.762 
12:10	40.5	40.5	40.5	77	33.9	1	4	248	0.00	29.762 
12:15	40.6	40.6	40.6	77	34.0	2	6	270	0.00	29.760 
12:20	40.6	40.6	40.6	77	34.0	2	5	248	0.00	29.760 
12:25	40.8	40.8	40.8	77	34.2	3	9	248	0.00	29.760 
12:30	40.9	40.9	40.9	77	34.3	3	7	248	0.00	29.758 
12:35	41.2	38.7	41.2	75	33.9	4	11	248	0.00	29.758 
12:40	41.2	41.2	41.2	75	33.9	3	10	248	0.00	29.758 
12:45	41.3	41.3	41.3	75	34.0	3	10	248	0.00	29.751 
12:50	41.3	41.3	41.3	75	34.0	2	6	248	0.00	29.751 
12:55	41.5	41.5	41.5	75	34.2	3	6	248	0.00	29.751 
13:00	41.6	41.6	41.6	75	34.3	3	8	248	0.00	29.746 
13:05	41.8	39.4	41.8	74	34.1	4	9	248	0.00	29.746 
13:15	41.8	41.8	41.8	75	34.5	3	7	248	0.00	29.746 
13:20	41.9	41.9	41.9	75	34.6	3	6	248	0.00	29.742 
13:25	41.9	41.9	41.9	75	34.6	2	10	248	0.00	29.742 
13:30	42.2	42.2	42.2	75	34.9	1	5	248	0.00	29.730 
13:35	42.3	42.3	42.3	75	35.0	3	10	248	0.00	29.730 
13:40	42.3	42.3	42.3	75	35.0	2	7	248	0.00	29.730 
13:45	42.6	40.3	42.6	74	34.9	4	12	248	0.00	29.732 
13:50	42.9	42.9	42.9	73	34.9	3	8	248	0.00	29.732 
13:55	43.1	43.1	43.1	72	34.7	3	6	248	0.00	29.732 
14:00	43.1	43.1	43.1	70	34.0	3	9	248	0.00	29.728 
14:05	43.2	43.2	43.2	69	33.7	3	8	248	0.00	29.728 
14:10	43.3	43.3	43.3	69	33.8	2	6	248	0.00	29.728 
14:15	43.1	40.9	43.1	69	33.6	4	11	248	0.00	29.727 
14:20	42.9	42.9	42.9	69	33.4	3	7	248	0.00	29.727 
14:25	42.9	42.9	42.9	69	33.4	3	7	248	0.00	29.727 
14:30	42.9	42.9	42.9	70	33.8	3	7	248	0.00	29.728 
14:35	42.8	42.8	42.8	69	33.3	3	7	248	0.00	29.728 
14:40	42.8	42.8	42.8	69	33.3	2	6	248	0.00	29.728 
14:45	42.8	40.6	42.8	69	33.3	4	12	248	0.00	29.730 
14:50	42.8	39.8	42.8	69	33.3	5	14	248	0.00	29.730 
14:55	42.8	40.6	42.8	69	33.3	4	10	248	0.00	29.730 
15:00	42.6	42.6	42.6	69	33.2	3	10	248	0.00	29.738 
15:05	42.3	38.5	42.3	69	32.9	6	12	270	0.00	29.738 
15:10	41.8	38.6	41.8	70	32.7	5	10	270	0.00	29.738 
15:15	41.6	38.4	41.6	70	32.6	5	12	270	0.00	29.749 
15:20	41.5	38.2	41.5	69	32.1	5	15	248	0.00	29.749 
15:25	41.5	39.1	41.5	69	32.1	4	10	248	0.00	29.749 
15:30	41.2	37.9	41.2	68	31.5	5	11	248	0.00	29.761 
15:35	40.9	37.5	40.9	69	31.5	5	12	270	0.00	29.761 
15:40	40.3	36.8	40.3	69	31.0	5	9	270	0.00	29.761 
15:45	40.2	37.5	40.2	69	30.9	4	11	248	0.00	29.770 
15:50	40.2	37.5	40.2	69	30.9	4	7	270	0.00	29.770 
15:55	40.1	37.4	40.1	68	30.4	4	14	270	0.00	29.770 
16:00	39.8	35.5	39.8	68	30.1	6	13	270	0.00	29.776 
16:05	39.6	36.0	39.6	68	29.9	5	13	270	0.00	29.776 
16:10	39.5	39.5	39.5	69	30.2	3	6	248	0.00	29.776 
16:15	39.2	36.4	39.2	70	30.3	4	7	248	0.00	29.786 
16:20	38.9	36.0	38.9	69	29.6	4	12	270	0.00	29.786 
16:25	38.6	34.8	38.6	69	29.3	5	11	270	0.00	29.786 
16:30	38.5	34.0	38.5	68	28.9	6	13	270	0.00	29.796 
16:35	38.5	38.5	38.5	68	28.9	3	11	270	0.00	29.796 
16:40	38.3	34.5	38.3	66	28.0	5	10	270	0.00	29.796 
16:45	38.3	34.5	38.3	67	28.3	5	12	248	0.00	29.801 
16:50	38.3	33.1	38.3	67	28.3	7	16	248	0.00	29.801 
16:55	38.2	34.4	38.2	67	28.2	5	12	248	0.00	29.801 
17:00	38.0	34.1	38.0	68	28.4	5	10	248	0.00	29.807 
17:05	38.0	34.1	38.0	68	28.4	5	10	270	0.00	29.807 
17:10	38.0	35.0	38.0	68	28.4	4	12	248	0.00	29.807 
17:15	38.0	35.0	38.0	68	28.4	4	9	248	0.00	29.816 
17:20	37.9	34.9	37.9	68	28.3	4	10	270	0.00	29.816 
17:25	37.9	34.0	37.9	68	28.3	5	11	248	0.00	29.816 
17:30	37.9	37.9	37.9	69	28.7	3	8	248	0.00	29.824 
17:35	37.9	34.9	37.9	69	28.7	4	11	248	0.00	29.824 
17:40	37.9	34.9	37.9	69	28.7	4	9	270	0.00	29.824 
17:45	37.8	34.8	37.8	69	28.6	4	9	248	0.00	29.831 
17:50	37.8	34.8	37.8	69	28.6	4	9	248	0.00	29.831 
17:55	37.8	34.8	37.8	70	28.9	4	11	248	0.00	29.831 
18:00	37.8	37.8	37.8	70	28.9	3	6	248	0.00	29.842 
18:05	37.8	34.8	37.8	70	28.9	4	10	248	0.00	29.842 
18:10	37.8	37.8	37.8	70	28.9	3	11	248	0.00	29.842 
18:15	37.8	34.8	37.8	71	29.3	4	9	248	0.00	29.855 
18:20	37.6	34.5	37.6	71	29.1	4	9	270	0.00	29.855 
18:25	37.6	34.5	37.6	71	29.1	4	9	248	0.00	29.855 
18:30	37.6	37.6	37.6	71	29.1	3	10	248	0.00	29.859 
18:35	37.6	37.6	37.6	71	29.1	3	11	248	0.00	29.859 
18:40	37.6	37.6	37.6	71	29.1	3	11	248	0.00	29.859 
18:45	37.5	37.5	37.5	72	29.3	3	7	248	0.00	29.860 
18:50	37.5	37.5	37.5	72	29.3	3	7	248	0.00	29.860 
18:55	37.5	37.5	37.5	72	29.3	3	8	248	0.00	29.860 
19:00	37.5	34.4	37.5	72	29.3	4	10	248	0.00	29.866 
19:05	37.5	37.5	37.5	72	29.3	2	9	248	0.00	29.866 
19:10	37.3	37.3	37.3	72	29.1	3	9	248	0.00	29.866 
19:15	37.3	37.3	37.3	72	29.1	2	10	248	0.00	29.876 
19:20	37.5	37.5	37.5	71	29.0	3	7	248	0.00	29.876 
19:25	37.5	37.5	37.5	71	29.0	3	7	248	0.00	29.876 
19:30	37.5	37.5	37.5	71	29.0	3	9	248	0.00	29.886 
19:35	37.5	37.5	37.5	70	28.6	2	4	248	0.00	29.886 
19:40	37.5	37.5	37.5	70	28.6	3	5	248	0.00	29.886 
19:45	37.5	37.5	37.5	71	29.0	3	9	248	0.00	29.894 
19:50	37.5	37.5	37.5	71	29.0	3	9	248	0.00	29.894 
19:55	37.5	37.5	37.5	72	29.3	2	7	248	0.00	29.894 
20:00	37.5	37.5	37.5	72	29.3	3	11	248	0.00	29.904 
20:05	37.3	37.3	37.3	73	29.5	2	6	248	0.00	29.904 
20:10	37.3	37.3	37.3	73	29.5	2	6	248	0.00	29.904 
20:15	37.3	37.3	37.3	73	29.5	2	10	270	0.00	29.907 
20:20	37.2	37.2	37.2	73	29.4	2	5	270	0.00	29.907 
20:25	37.2	37.2	37.2	73	29.4	2	5	270	0.00	29.907 
20:30	37.2	37.2	37.2	73	29.4	2	5	248	0.00	29.914 
20:35	37.2	37.2	37.2	73	29.4	2	6	248	0.00	29.914 
20:40	37.0	37.0	37.0	72	28.8	2	7	248	0.00	29.914 
20:45	37.0	37.0	37.0	72	28.8	1	3	248	0.00	29.916 
20:50	36.9	36.9	36.9	72	28.7	1	4	248	0.00	29.916 
20:55	36.9	36.9	36.9	72	28.7	2	6	270	0.00	29.916 
21:00	36.9	36.9	36.9	71	28.4	2	5	270	0.00	29.919 
21:05	36.8	36.8	36.8	70	27.9	2	4	248	0.00	29.919 
21:10	36.8	36.8	36.8	69	27.6	2	4	248	0.00	29.919 
21:15	36.8	36.8	36.8	67	26.9	2	5	248	0.00	29.920 
21:20	36.8	36.8	36.8	65	26.2	2	5	248	0.00	29.920 
21:25	36.8	36.8	36.8	65	26.2	1	4	248	0.00	29.920 
21:30	36.8	36.8	36.8	64	25.8	1	4	248	0.00	29.923 
21:35	36.8	36.8	36.8	63	25.4	1	3	248	0.00	29.923 
21:40	36.8	36.8	36.8	63	25.4	1	3	248	0.00	29.923 
21:45	36.8	36.8	36.8	63	25.4	1	4	248	0.00	29.929 
21:50	36.6	36.6	36.6	64	25.6	0	2	248	0.00	29.929 
21:55	36.6	36.6	36.6	64	25.6	0	2	248	0.00	29.929 
22:00	36.6	36.6	36.6	64	25.6	1	3	248	0.00	29.931 
22:05	36.5	36.5	36.5	65	25.9	1	2	248	0.00	29.931 
22:10	36.5	36.5	36.5	65	25.9	1	4	248	0.00	29.931 
22:15	36.5	36.5	36.5	65	25.9	1	3	248	0.00	29.931 
22:20	36.5	36.5	36.5	65	25.9	1	4	248	0.00	29.931 
22:25	36.3	36.3	36.3	66	26.0	1	3	248	0.00	29.931 
22:30	36.3	36.3	36.3	65	25.7	3	6	248	0.00	29.932 
22:35	36.3	36.3	36.3	63	24.9	2	5	248	0.00	29.932 
22:40	36.3	36.3	36.3	62	24.5	2	4	292	0.00	29.932 
22:45	36.2	36.2	36.2	60	23.7	3	6	292	0.00	29.934 
22:50	36.0	36.0	36.0	59	23.1	3	6	270	0.00	29.934 
22:55	35.9	35.9	35.9	59	23.0	3	7	270	0.00	29.934 
23:00	35.8	35.8	35.8	60	23.3	2	5	248	0.00	29.942 
23:05	35.5	35.5	35.5	61	23.4	2	5	270	0.00	29.942 
23:10	35.0	35.0	35.0	61	22.9	3	7	270	0.00	29.942 
23:15	34.7	34.7	34.7	61	22.6	2	5	270	0.00	29.950 
23:20	34.6	34.6	34.6	61	22.6	3	6	270	0.00	29.950 
23:25	34.3	34.3	34.3	61	22.3	2	4	270	0.00	29.950 
23:30	34.0	34.0	34.0	61	22.0	2	5	248	0.00	29.948 
23:35	33.8	33.8	33.8	61	21.8	2	3	292	0.00	29.948 
23:40	33.7	33.7	33.7	61	21.7	2	9	292	0.00	29.948 
23:45	33.5	33.5	33.5	61	21.5	1	3	292	0.00	29.942 
23:50	33.4	33.4	33.4	62	21.8	1	4	315	0.00	29.942 
23:55	33.1	33.1	33.1	62	21.5	0	3	270	0.00	29.942 

CoCoRaHS
IN-AL-39
A2 Web Hosting
Creative Commons License
GoDaddy
search engine by freefind advanced

loaded 2018-11-17 23:38:51 • last modified 2010-11-18 10:43:29
Privacy PolicyDisclaimer
• wx.awcolley.com is powered by PmWiki v.2002016 •
• all content (unless otherwise noted) © 2018 A W Colley